Time;durP1;ratioP1;P1;durP2;ratioP2;P2;SDS_P1;SDS_P2;PMS_P1;PMS_P2;Temp;Humidity;BMP_temperature;BMP_pressure;BME280_temperature;BME280_humidity;BME280_pressure;Samples;Min_cycle;Max_cycle;Signal;HPM_P1;HPM_P2
2022/05/18 00:01:30;;;;;;;9.18;3.20;;;;;;;22.43;48.22;99349.69;5049313;28;20028;-47
2022/05/18 00:03:56;;;;;;;5.43;2.90;;;;;;;22.92;47.75;99355.75;5034363;28;20068;-50
2022/05/18 00:06:21;;;;;;;4.20;3.00;;;;;;;22.91;47.39;99354.94;5029024;28;20017;-47
2022/05/18 00:08:47;;;;;;;4.63;3.20;;;;;;;22.38;48.72;99352.44;5029279;28;20021;-47
2022/05/18 00:11:16;;;;;;;3.17;2.80;;;;;;;22.81;48.08;99349.69;5029271;28;20058;-47
2022/05/18 00:13:43;;;;;;;;;;;;;;;22.90;48.57;99349.81;5031742;28;20108;-46
2022/05/18 00:16:09;;;;;;;3.55;2.83;;;;;;;22.84;47.78;99338.22;5033182;28;19916;-47
2022/05/18 00:18:35;;;;;;;5.72;2.90;;;;;;;22.75;47.91;99323.72;5032166;28;20087;-50
2022/05/18 00:21:01;;;;;;;4.25;2.90;;;;;;;22.92;47.88;99315.06;5032765;28;20621;-49
2022/05/18 00:23:27;;;;;;;3.28;2.80;;;;;;;23.15;47.30;99307.94;5033386;28;20026;-48
2022/05/18 00:25:53;;;;;;;3.88;2.65;;;;;;;22.52;48.08;99306.44;5032658;28;20053;-46
2022/05/18 00:28:18;;;;;;;5.50;2.83;;;;;;;22.72;47.80;99316.19;5032997;28;20080;-47
2022/05/18 00:30:44;;;;;;;3.72;2.70;;;;;;;22.94;47.16;99321.00;5032271;28;20175;-48
2022/05/18 00:33:10;;;;;;;4.93;2.80;;;;;;;23.06;47.03;99305.09;5032852;28;20021;-46
2022/05/18 00:35:38;;;;;;;4.47;3.10;;;;;;;23.29;46.32;99305.28;5032337;28;20466;-46
2022/05/18 00:38:04;;;;;;;4.78;2.90;;;;;;;22.86;47.33;99303.47;5031512;28;20029;-47
2022/05/18 00:40:31;;;;;;;5.15;3.03;;;;;;;22.59;48.68;99310.41;5032080;28;20091;-46
2022/05/18 00:42:57;;;;;;;5.00;3.03;;;;;;;22.78;47.74;99301.44;5032889;28;20087;-47
2022/05/18 00:45:22;;;;;;;5.25;2.95;;;;;;;23.07;47.21;99297.75;5032429;28;20026;-47
2022/05/18 00:47:48;;;;;;;3.95;2.90;;;;;;;22.99;46.85;99299.22;5031179;28;20029;-47
2022/05/18 00:50:20;;;;;;;5.53;3.10;;;;;;;22.78;47.68;99298.75;5032643;28;20022;-46
2022/05/18 00:53:04;;;;;;;3.50;2.88;;;;;;;22.88;47.21;99293.13;5032307;28;20109;-47
2022/05/18 00:55:35;;;;;;;4.47;2.80;;;;;;;22.91;47.28;99289.06;5032290;28;20533;-46
2022/05/18 00:58:16;;;;;;;4.70;3.05;;;;;;;22.78;47.41;99294.09;5031816;28;20508;-46
2022/05/18 01:00:42;;;;;;;3.55;2.80;;;;;;;22.64;47.84;99293.25;5032515;28;20053;-47
2022/05/18 01:03:34;;;;;;;4.40;3.00;;;;;;;22.69;47.75;99297.78;5039170;28;20021;-46
2022/05/18 01:06:09;;;;;;;3.47;2.95;;;;;;;22.91;47.28;99297.97;5046899;28;20404;-47
2022/05/18 01:08:56;;;;;;;4.38;3.10;;;;;;;22.84;47.55;99301.06;5052062;28;20083;-48
2022/05/18 01:11:22;;;;;;;4.50;2.83;;;;;;;22.87;47.47;99298.88;5051884;28;20028;-47
2022/05/18 01:13:48;;;;;;;3.55;2.90;;;;;;;22.89;48.14;99307.53;5051486;28;20035;-47
2022/05/18 01:16:14;;;;;;;3.78;3.00;;;;;;;22.81;47.75;99312.50;5051367;28;20024;-47
2022/05/18 01:18:41;;;;;;;4.47;2.72;;;;;;;22.95;47.60;99309.06;5051418;28;20032;-48
2022/05/18 01:21:07;;;;;;;5.38;3.17;;;;;;;22.98;48.05;99309.28;5051846;28;20048;-47
2022/05/18 01:23:48;;;;;;;5.25;3.08;;;;;;;22.88;47.66;99297.75;5051698;28;20461;-47
2022/05/18 01:26:44;;;;;;;4.03;3.10;;;;;;;23.07;47.54;99287.69;5051431;28;20029;-46
2022/05/18 01:29:10;;;;;;;3.78;3.00;;;;;;;22.53;48.86;99287.19;5050658;28;20063;-47
2022/05/18 01:31:49;;;;;;;4.72;3.10;;;;;;;22.52;49.32;99292.88;5051555;28;20115;-47
2022/05/18 01:34:17;;;;;;;5.47;3.00;;;;;;;22.64;49.58;99288.63;5051060;28;20409;-47
2022/05/18 01:36:43;;;;;;;4.55;3.30;;;;;;;22.71;49.01;99279.31;5050732;28;20025;-49
2022/05/18 01:39:13;;;;;;;4.97;3.25;;;;;;;22.78;48.84;99280.56;5051243;28;20087;-48
2022/05/18 01:41:50;;;;;;;5.00;3.25;;;;;;;22.83;48.78;99276.97;5051296;28;20047;-47
2022/05/18 01:44:15;;;;;;;4.78;3.00;;;;;;;22.67;49.45;99275.59;5050740;28;20504;-49
2022/05/18 01:46:41;;;;;;;8.60;3.70;;;;;;;22.71;49.28;99273.88;5051163;28;20025;-47
2022/05/18 01:49:06;;;;;;;5.00;3.10;;;;;;;22.51;49.87;99273.09;5050928;28;20021;-49
2022/05/18 01:51:43;;;;;;;5.82;3.00;;;;;;;22.70;49.84;99270.38;5051128;28;20033;-48
2022/05/18 01:54:09;;;;;;;3.97;3.40;;;;;;;22.80;49.26;99255.84;5051119;28;20021;-48
2022/05/18 01:56:34;;;;;;;5.30;3.40;;;;;;;22.50;49.81;99267.97;5050237;28;20106;-48
2022/05/18 01:59:00;;;;;;;4.55;3.20;;;;;;;22.69;49.31;99259.81;5050870;28;20063;-49
2022/05/18 02:01:26;;;;;;;3.40;3.10;;;;;;;22.43;50.59;99255.59;5050778;28;20063;-47
2022/05/18 02:03:51;;;;;;;3.50;3.03;;;;;;;22.50;49.72;99257.94;5036286;28;20033;-47
2022/05/18 02:06:17;;;;;;;8.45;3.40;;;;;;;22.10;50.96;99256.59;5029582;28;20382;-47
2022/05/18 02:08:43;;;;;;;5.07;2.70;;;;;;;21.97;51.01;99253.50;5030535;28;20025;-47
2022/05/18 02:11:17;;;;;;;6.10;3.28;;;;;;;21.67;51.78;99247.38;5030550;28;20676;-47
2022/05/18 02:13:42;;;;;;;6.10;3.30;;;;;;;22.14;50.92;99244.88;5030667;28;20120;-47
2022/05/18 02:16:08;;;;;;;5.22;3.10;;;;;;;22.21;50.70;99248.00;5029786;28;20545;-47
2022/05/18 02:18:34;;;;;;;4.80;2.83;;;;;;;22.06;51.01;99249.03;5030575;28;20025;-47
2022/05/18 02:21:09;;;;;;;3.22;2.92;;;;;;;22.30;50.74;99248.22;5030629;28;20188;-46
2022/05/18 02:23:36;;;;;;;3.83;3.10;;;;;;;22.03;51.19;99251.53;5031044;28;20029;-47
2022/05/18 02:26:14;;;;;;;4.28;3.10;;;;;;;22.14;51.26;99244.88;5030192;28;20030;-46
2022/05/18 02:28:40;;;;;;;5.65;3.33;;;;;;;21.89;51.79;99243.31;5030153;28;20037;-46
2022/05/18 02:31:06;;;;;;;3.97;3.38;;;;;;;21.95;52.04;99247.56;5030411;28;20048;-46
2022/05/18 02:33:31;;;;;;;6.50;3.30;;;;;;;21.73;52.27;99250.81;5030354;28;20561;-47
2022/05/18 02:35:57;;;;;;;9.77;3.45;;;;;;;21.75;51.97;99243.22;5028853;28;20063;-47
2022/05/18 02:38:22;;;;;;;7.60;3.70;;;;;;;21.56;52.47;99250.47;5029062;28;20025;-49
2022/05/18 02:40:47;;;;;;;6.68;3.50;;;;;;;21.26;52.96;99246.97;5029786;28;20029;-47
2022/05/18 02:43:13;;;;;;;4.53;3.10;;;;;;;21.71;52.15;99254.91;5030216;28;20030;-47
2022/05/18 02:45:38;;;;;;;4.70;3.33;;;;;;;21.78;51.89;99258.88;5029448;28;20044;-49
2022/05/18 02:48:05;;;;;;;4.65;3.58;;;;;;;21.58;52.34;99267.25;5029873;28;20028;-49
2022/05/18 02:50:32;;;;;;;4.75;3.42;;;;;;;21.89;51.41;99269.59;5030203;28;20033;-48
2022/05/18 02:52:58;;;;;;;4.72;3.38;;;;;;;21.68;52.57;99267.13;5029965;28;20502;-47
2022/05/18 02:58:08;;;;;;;5.97;3.50;;;;;;;21.14;54.45;99282.53;5029263;28;20032;-47
2022/05/18 03:00:34;;;;;;;4.80;3.25;;;;;;;20.54;55.57;99279.19;5029328;28;20033;-46
2022/05/18 03:02:59;;;;;;;7.90;3.60;;;;;;;20.74;55.24;99276.38;5037439;28;20031;-47
2022/05/18 03:05:25;;;;;;;9.18;3.65;;;;;;;20.81;54.84;99284.97;5049354;28;20039;-48
2022/05/18 03:07:50;;;;;;;6.60;3.70;;;;;;;20.71;55.23;99274.22;5049809;28;20086;-47
2022/05/18 03:10:16;;;;;;;5.93;3.22;;;;;;;20.68;56.27;99291.00;5049198;28;20114;-47
2022/05/18 03:12:43;;;;;;;5.03;3.35;;;;;;;20.88;54.82;99288.13;5049466;28;20033;-46
2022/05/18 03:15:11;;;;;;;15.20;10.10;;;;;;;20.78;55.72;99288.22;5049623;28;20025;-48
2022/05/18 03:17:37;;;;;;;7.00;4.93;;;;;;;20.98;54.25;99294.56;5048911;28;20052;-48
2022/05/18 03:20:03;;;;;;;5.60;3.90;;;;;;;20.73;55.28;99292.88;5049671;28;20527;-47
2022/05/18 03:25:15;;;;;;;9.40;3.50;;;;;;;20.87;54.94;99310.88;5049116;28;20040;-47
2022/05/18 03:27:43;;;;;;;5.47;3.60;;;;;;;20.88;55.17;99314.38;5049823;28;20025;-48
2022/05/18 03:30:11;;;;;;;8.02;3.45;;;;;;;21.12;54.53;99308.25;5049247;28;20057;-48
2022/05/18 03:32:36;;;;;;;4.88;3.40;;;;;;;21.04;54.79;99310.47;5048910;28;20025;-48
2022/05/18 03:35:02;;;;;;;8.15;3.90;;;;;;;20.89;55.32;99310.59;5049271;28;20028;-49
2022/05/18 03:37:28;;;;;;;6.45;3.50;;;;;;;20.44;56.44;99315.97;5048105;28;20033;-47
2022/05/18 03:39:53;;;;;;;6.68;3.80;;;;;;;20.75;55.58;99306.91;5032443;28;20037;-48
2022/05/18 03:42:19;;;;;;;6.53;3.92;;;;;;;21.18;54.64;99316.03;5029340;28;20570;-47
2022/05/18 03:44:44;;;;;;;3.67;3.30;;;;;;;21.59;53.31;99312.97;5029318;28;20453;-48
2022/05/18 03:47:10;;;;;;;6.20;3.90;;;;;;;21.57;53.83;99311.63;5031180;28;20710;-48
2022/05/18 03:49:36;;;;;;;6.15;3.67;;;;;;;21.53;53.48;99310.59;5033437;28;20033;-48
2022/05/18 03:52:02;;;;;;;4.15;3.63;;;;;;;21.82;52.49;99322.19;5033219;28;20034;-48
2022/05/18 03:54:27;;;;;;;7.20;3.92;;;;;;;21.95;52.71;99318.00;5033133;28;20038;-47
2022/05/18 03:56:53;;;;;;;5.18;3.80;;;;;;;22.45;50.91;99323.09;5032956;28;20466;-50
2022/05/18 03:59:18;;;;;;;5.43;3.67;;;;;;;22.62;50.58;99320.66;5033310;28;20640;-46
2022/05/18 04:01:44;;;;;;;7.38;4.30;;;;;;;22.74;49.91;99322.94;5033679;28;20029;-51
2022/05/18 04:04:09;;;;;;;4.38;3.72;;;;;;;23.06;49.10;99329.53;5032760;28;20032;-47
2022/05/18 04:06:35;;;;;;;8.98;3.72;;;;;;;23.25;48.32;99331.38;5043071;28;20022;-49
2022/05/18 04:09:00;;;;;;;3.85;3.40;;;;;;;23.16;48.81;99313.06;5040046;28;20032;-48
2022/05/18 04:11:26;;;;;;;21.13;12.27;;;;;;;23.34;48.19;99325.00;5038820;28;20458;-47
2022/05/18 04:13:52;;;;;;;6.68;5.05;;;;;;;23.30;48.27;99328.56;5037244;28;20036;-47
2022/05/18 04:16:18;;;;;;;9.35;5.28;;;;;;;23.00;48.75;99323.34;5038816;28;20565;-49
2022/05/18 04:18:43;;;;;;;11.73;4.57;;;;;;;23.28;48.38;99326.16;5040716;28;20021;-49
2022/05/18 04:21:09;;;;;;;4.10;3.15;;;;;;;22.98;48.38;99346.44;5044408;28;20028;-50
2022/05/18 04:23:44;;;;;;;9.70;3.35;;;;;;;23.27;47.85;99334.63;5052138;28;20029;-49
2022/05/18 04:26:09;;;;;;;11.88;3.40;;;;;;;23.42;47.95;99346.00;5051610;28;20029;-47
2022/05/18 04:28:35;;;;;;;7.38;3.30;;;;;;;24.30;45.82;99345.16;5051395;28;20094;-50
2022/05/18 04:31:01;;;;;;;3.80;3.20;;;;;;;24.28;45.41;99341.16;5049013;28;20072;-51
2022/05/18 04:33:27;;;;;;;6.38;3.50;;;;;;;24.75;44.49;99345.31;5051901;28;20103;-47
2022/05/18 04:35:52;;;;;;;4.63;3.20;;;;;;;24.78;44.51;99346.59;5050471;28;20021;-48
2022/05/18 04:38:20;;;;;;;7.72;3.20;;;;;;;24.78;44.17;99333.78;5051013;28;20033;-47
2022/05/18 04:40:46;;;;;;;4.10;3.20;;;;;;;25.06;43.59;99332.88;5050630;28;20354;-47
2022/05/18 04:43:12;;;;;;;8.93;3.00;;;;;;;24.71;44.42;99349.75;5042166;28;20484;-48
2022/05/18 04:45:44;;;;;;;4.10;2.97;;;;;;;25.45;43.08;99355.91;5029883;28;20026;-47
2022/05/18 04:48:15;;;;;;;6.07;3.08;;;;;;;25.49;42.87;99352.25;5029273;28;20116;-47
2022/05/18 04:50:41;;;;;;;7.95;3.50;;;;;;;25.62;42.44;99347.81;5029561;28;20144;-50
2022/05/18 04:53:07;;;;;;;6.90;3.72;;;;;;;25.97;42.17;99356.19;5030787;28;20029;-50
2022/05/18 04:55:34;;;;;;;17.52;10.90;;;;;;;26.59;40.63;99357.94;5030728;28;20461;-36
2022/05/18 04:58:02;;;;;;;15.15;3.55;;;;;;;26.21;41.04;99349.50;5049162;28;20036;-37
2022/05/18 05:00:27;;;;;;;6.65;3.40;;;;;;;25.71;42.14;99359.56;5050344;28;20411;-36
2022/05/18 05:02:57;;;;;;;11.40;3.30;;;;;;;25.68;41.76;99343.03;5044235;28;20029;-36
2022/05/18 05:05:24;;;;;;;8.77;3.50;;;;;;;25.82;41.91;99371.00;5029929;28;20029;-36
2022/05/18 05:07:49;;;;;;;11.10;3.67;;;;;;;25.80;41.67;99378.69;5030745;28;20023;-37
2022/05/18 05:10:17;;;;;;;8.95;4.88;;;;;;;25.67;42.37;99374.91;5030497;28;20112;-38
2022/05/18 05:12:42;;;;;;;11.43;3.65;;;;;;;25.96;41.69;99372.84;5029495;28;20430;-37
2022/05/18 05:15:09;;;;;;;6.72;3.50;;;;;;;26.40;40.94;99376.50;5029738;28;20056;-37
2022/05/18 05:17:34;;;;;;;14.18;3.85;;;;;;;27.15;39.23;99392.78;5029227;28;20050;-37
2022/05/18 05:20:01;;;;;;;17.00;4.78;;;;;;;27.07;39.45;99387.03;5029925;28;20029;-37
2022/05/18 05:22:27;;;;;;;8.18;3.70;;;;;;;27.27;39.18;99385.56;5030226;28;20028;-37
2022/05/18 05:24:52;;;;;;;34.25;4.60;;;;;;;26.57;40.26;99392.09;5029763;28;20026;-36
2022/05/18 05:27:18;;;;;;;12.65;3.90;;;;;;;27.26;39.21;99394.06;5030204;28;20421;-37
2022/05/18 05:29:43;;;;;;;9.13;3.38;;;;;;;27.08;39.15;99396.00;5029439;28;20421;-37
2022/05/18 05:32:09;;;;;;;7.45;3.50;;;;;;;26.84;39.84;99388.28;5030042;28;20108;-37
2022/05/18 05:34:35;;;;;;;9.27;3.63;;;;;;;26.98;39.54;99399.03;5030136;28;20112;-37
2022/05/18 05:37:01;;;;;;;17.48;4.32;;;;;;;26.82;39.77;99399.53;5029425;28;20108;-37
2022/05/18 05:39:26;;;;;;;11.65;3.67;;;;;;;26.90;39.75;99409.66;5030496;28;20421;-37
2022/05/18 05:41:52;;;;;;;7.30;3.50;;;;;;;27.46;38.78;99407.06;5030727;28;20549;-37
2022/05/18 05:44:17;;;;;;;5.68;3.58;;;;;;;27.87;38.17;99413.06;5030337;28;20079;-36
2022/05/18 05:46:44;;;;;;;4.30;3.50;;;;;;;27.61;38.58;99408.50;5029836;28;20064;-37
2022/05/18 05:49:11;;;;;;;10.65;3.60;;;;;;;26.89;39.74;99407.25;5029820;28;20475;-38
2022/05/18 05:51:36;;;;;;;9.75;3.70;;;;;;;27.00;39.63;99405.00;5034938;28;20021;-38
2022/05/18 05:54:02;;;;;;;10.70;3.58;;;;;;;27.39;39.21;99405.97;5049535;28;20075;-38
2022/05/18 05:56:27;;;;;;;9.98;3.50;;;;;;;26.71;39.96;99409.13;5040497;28;20469;-37
2022/05/18 05:58:53;;;;;;;6.93;3.50;;;;;;;26.74;39.91;99413.16;5029359;28;20093;-37
2022/05/18 06:01:19;;;;;;;7.38;3.53;;;;;;;26.37;40.79;99421.56;5029437;28;20017;-39
2022/05/18 06:03:45;;;;;;;7.25;3.42;;;;;;;26.78;40.28;99416.88;5030059;28;20086;-37
2022/05/18 06:06:10;;;;;;;6.65;3.42;;;;;;;26.64;40.54;99419.75;5028735;28;20025;-38
2022/05/18 06:08:37;;;;;;;12.30;3.70;;;;;;;27.05;40.20;99418.47;5029465;28;20567;-37
2022/05/18 06:11:04;;;;;;;8.95;3.70;;;;;;;27.55;39.05;99423.47;5028220;28;20025;-38
2022/05/18 06:13:29;;;;;;;5.93;3.50;;;;;;;27.90;38.34;99417.13;5029494;28;20025;-38
2022/05/18 06:15:55;;;;;;;8.13;3.78;;;;;;;27.39;39.05;99414.94;5029106;28;20453;-37
2022/05/18 06:18:21;;;;;;;9.60;3.92;;;;;;;27.40;39.05;99418.50;5028461;28;20028;-38
2022/05/18 06:20:47;;;;;;;9.00;3.80;;;;;;;28.23;37.82;99414.56;5029234;28;20018;-38
2022/05/18 06:23:14;;;;;;;6.18;3.90;;;;;;;28.49;37.15;99416.38;5029827;28;20033;-38
2022/05/18 06:25:40;;;;;;;9.50;3.83;;;;;;;28.43;37.09;99415.75;5028830;28;20060;-37
2022/05/18 06:28:07;;;;;;;8.07;3.60;;;;;;;27.53;38.43;99417.53;5029745;28;20108;-38
2022/05/18 06:30:34;;;;;;;4.03;3.47;;;;;;;28.05;37.86;99425.56;5029589;28;20046;-38
2022/05/18 06:33:00;;;;;;;24.42;3.85;;;;;;;28.10;37.72;99432.00;5029332;28;20017;-37
2022/05/18 06:35:25;;;;;;;17.35;3.70;;;;;;;27.94;36.79;99429.00;5029430;28;20018;-36
2022/05/18 06:37:51;;;;;;;17.67;3.92;;;;;;;28.06;36.97;99426.38;5027677;28;20154;-36
2022/05/18 06:40:18;;;;;;;6.10;3.60;;;;;;;27.44;38.19;99433.13;5028910;28;20025;-36
2022/05/18 06:42:44;;;;;;;20.88;3.95;;;;;;;27.36;38.00;99425.72;5029336;28;20025;-37
2022/05/18 06:45:11;;;;;;;12.32;4.45;;;;;;;27.77;37.31;99429.81;5028927;28;20304;-37
2022/05/18 06:47:37;;;;;;;8.65;3.67;;;;;;;27.95;37.48;99414.19;5028897;28;20496;-38
2022/05/18 06:50:04;;;;;;;10.98;4.00;;;;;;;28.86;36.27;99431.09;5029370;28;20064;-38
2022/05/18 06:52:31;;;;;;;10.35;3.78;;;;;;;29.42;35.37;99433.56;5029237;28;20083;-37
2022/05/18 06:54:56;;;;;;;9.48;3.85;;;;;;;29.21;34.98;99428.13;5028719;28;20017;-37
2022/05/18 06:57:22;;;;;;;8.25;3.53;;;;;;;28.81;36.04;99434.06;5042890;28;20512;-38
2022/05/18 06:59:47;;;;;;;7.38;3.75;;;;;;;28.09;36.77;99444.88;5047969;28;20029;-37
2022/05/18 07:02:13;;;;;;;3.75;3.38;;;;;;;27.95;37.14;99439.63;5047422;28;20020;-38
2022/05/18 07:04:38;;;;;;;7.13;3.55;;;;;;;27.19;39.03;99446.44;5028056;28;20481;-37
2022/05/18 07:07:04;;;;;;;6.72;3.60;;;;;;;27.38;38.74;99454.34;5028080;28;20022;-37
2022/05/18 07:09:30;;;;;;;9.15;3.88;;;;;;;26.65;39.78;99437.72;5028850;28;20480;-37
2022/05/18 07:11:55;;;;;;;7.45;3.80;;;;;;;26.79;39.79;99446.56;5029256;28;20021;-37
2022/05/18 07:14:24;;;;;;;5.82;3.72;;;;;;;27.17;39.10;99459.63;5026995;28;20378;-37
2022/05/18 07:16:50;;;;;;;20.63;4.22;;;;;;;25.99;40.93;99448.50;5027943;28;20575;-37
2022/05/18 07:19:17;;;;;;;18.80;4.03;;;;;;;26.83;40.00;99460.38;5028077;28;20104;-37
2022/05/18 07:21:44;;;;;;;15.07;4.18;;;;;;;26.45;40.39;99452.72;5028472;28;20060;-37
2022/05/18 07:24:10;;;;;;;10.65;4.15;;;;;;;25.63;42.21;99449.44;5028482;28;20029;-37
2022/05/18 07:26:37;;;;;;;9.88;4.40;;;;;;;25.97;41.71;99457.03;5026667;28;20026;-37
2022/05/18 07:29:05;;;;;;;11.45;4.32;;;;;;;26.14;41.56;99459.84;5028708;28;20050;-39
2022/05/18 07:32:08;;;;;;;10.07;4.22;;;;;;;26.43;41.11;99466.69;5030163;28;20040;-37
2022/05/18 07:34:16;;;;;;;10.70;4.53;;;;;;;25.89;42.07;99460.47;5032193;28;20033;-37
2022/05/18 07:36:41;;;;;;;8.98;4.40;;;;;;;25.02;44.22;99471.50;5041309;28;20017;-36
2022/05/18 07:39:07;;;;;;;12.63;4.50;;;;;;;25.55;43.49;99480.91;5038504;28;20095;-38
2022/05/18 07:41:32;;;;;;;7.57;4.43;;;;;;;25.55;43.10;99479.03;5034014;28;20481;-37
2022/05/18 07:43:58;;;;;;;12.25;4.28;;;;;;;25.45;43.49;99478.44;5045763;28;20407;-37
2022/05/18 07:46:23;;;;;;;28.05;5.10;;;;;;;25.53;43.26;99483.97;5042668;28;20477;-38
2022/05/18 07:48:48;;;;;;;18.73;5.13;;;;;;;25.80;42.99;99479.50;5028090;28;20025;-38
2022/05/18 07:51:14;;;;;;;8.52;4.40;;;;;;;25.78;42.85;99476.28;5040375;28;20040;-36
2022/05/18 07:53:40;;;;;;;7.82;4.22;;;;;;;25.79;42.95;99491.50;5032845;28;20037;-37
2022/05/18 07:56:05;;;;;;;11.75;4.50;;;;;;;25.28;43.66;99493.53;5044814;28;20024;-38
2022/05/18 07:58:31;;;;;;;13.10;5.15;;;;;;;25.15;44.70;99499.78;5033695;28;20725;-38
2022/05/18 08:00:56;;;;;;;7.28;4.38;;;;;;;25.29;44.27;99488.91;5038888;28;20026;-37
2022/05/18 08:03:22;;;;;;;6.20;4.60;;;;;;;26.09;42.73;99492.69;5031872;28;20100;-37
2022/05/18 08:05:47;;;;;;;14.98;4.80;;;;;;;26.34;42.80;99493.91;5045008;28;20052;-38
2022/05/18 08:08:18;;;;;;;6.00;4.18;;;;;;;26.40;42.13;99499.22;5032120;28;20048;-37
2022/05/18 08:16:13;;;;;;;9.13;4.28;;;;;;;26.35;41.93;99494.72;5032566;28;20476;-38
2022/05/18 08:18:39;;;;;;;10.35;4.55;;;;;;;25.97;43.29;99514.28;5040346;28;20022;-38
2022/05/18 08:21:04;;;;;;;13.27;4.32;;;;;;;26.27;42.69;99500.94;5028501;28;20033;-38
2022/05/18 08:23:30;;;;;;;14.70;4.82;;;;;;;26.76;41.83;99507.25;5036537;28;20025;-37
2022/05/18 08:25:57;;;;;;;24.00;5.00;;;;;;;26.77;41.70;99514.31;5038030;28;20339;-37
2022/05/18 08:28:23;;;;;;;14.27;4.43;;;;;;;26.68;41.80;99510.75;5038412;28;20070;-37
2022/05/18 08:30:49;;;;;;;12.90;4.40;;;;;;;25.95;42.97;99519.22;5037550;28;20121;-38
2022/05/18 08:33:15;;;;;;;21.85;5.20;;;;;;;25.84;43.62;99521.38;5042553;28;20112;-38
2022/05/18 08:35:44;;;;;;;12.95;4.63;;;;;;;26.18;43.24;99521.91;5040106;28;20040;-38
2022/05/18 08:38:10;;;;;;;14.18;5.03;;;;;;;26.40;43.14;99540.94;5038803;28;20405;-38
2022/05/18 08:40:49;;;;;;;10.25;5.03;;;;;;;25.69;44.80;99540.81;5045698;28;20550;-37
2022/05/18 08:43:47;;;;;;;15.80;4.90;;;;;;;25.44;45.26;99544.94;5042404;28;20376;-38
2022/05/18 08:46:43;;;;;;;13.00;5.25;;;;;;;25.26;46.24;99555.66;5030525;28;20663;-37
2022/05/18 08:49:31;;;;;;;8.23;4.85;;;;;;;24.96;47.64;99552.47;5031714;28;20037;-38
2022/05/18 08:52:02;;;;;;;9.35;5.15;;;;;;;25.03;48.08;99545.78;5025614;28;20144;-46
2022/05/18 08:54:57;;;;;;;12.75;4.95;;;;;;;25.33;47.17;99544.38;5031232;28;20025;-47
2022/05/18 08:57:29;;;;;;;13.05;5.57;;;;;;;24.55;49.53;99561.41;5031433;28;20099;-46
2022/05/18 09:00:05;;;;;;;14.20;5.70;;;;;;;24.46;51.51;99560.47;5030456;28;20029;-47
2022/05/18 09:02:33;;;;;;;18.10;6.00;;;;;;;24.82;52.00;99559.03;5032905;28;20029;-48
2022/05/18 09:05:06;;;;;;;15.02;5.68;;;;;;;24.69;52.99;99557.91;5041200;28;20086;-46
2022/05/18 09:07:46;;;;;;;9.85;5.80;;;;;;;23.81;54.19;99534.13;5039331;28;20037;-46
2022/05/18 09:10:25;;;;;;;8.13;5.93;;;;;;;24.44;54.49;99561.88;5041677;28;20141;-50
2022/05/18 09:12:51;;;;;;;7.82;6.40;;;;;;;24.36;54.58;99560.66;5041436;28;20039;-47
2022/05/18 09:15:28;;;;;;;9.57;6.20;;;;;;;24.18;55.32;99567.78;5032207;28;20025;-46
2022/05/18 09:17:59;;;;;;;7.95;6.57;;;;;;;23.85;57.11;99569.69;5049164;28;20404;-45
2022/05/18 09:20:37;;;;;;;8.40;6.93;;;;;;;24.14;55.88;99566.75;5044250;28;20111;-45
2022/05/18 09:23:40;;;;;;;8.80;7.32;;;;;;;23.87;58.01;99576.41;5040855;28;20458;-44
2022/05/18 09:26:21;;;;;;;10.38;7.20;;;;;;;23.91;57.58;99571.19;5034930;28;20040;-46
2022/05/18 09:28:56;;;;;;;8.52;7.20;;;;;;;23.29;58.61;99563.94;5033605;28;20027;-49
2022/05/18 09:31:40;;;;;;;9.07;7.53;;;;;;;23.58;58.24;99574.66;5042115;28;20044;-46
2022/05/18 09:34:29;;;;;;;9.15;7.32;;;;;;;22.79;60.98;99575.09;5037041;28;20520;-46
2022/05/18 09:37:27;;;;;;;6.72;6.00;;;;;;;22.31;61.16;99569.63;5038223;28;20025;-45
2022/05/18 09:40:09;;;;;;;7.30;5.57;;;;;;;22.47;61.60;99573.00;5034866;28;20025;-47
2022/05/18 09:42:40;;;;;;;6.00;5.22;;;;;;;22.43;62.39;99575.47;5041630;28;20021;-44
2022/05/18 09:45:07;;;;;;;7.55;5.07;;;;;;;22.34;61.50;99569.06;5050116;28;20025;-48
2022/05/18 09:47:45;;;;;;;6.38;4.90;;;;;;;22.81;61.05;99562.06;5050361;28;20079;-45
2022/05/18 09:50:11;;;;;;;5.53;4.47;;;;;;;22.62;60.71;99564.72;5050815;28;20037;-49
2022/05/18 09:52:40;;;;;;;5.45;4.30;;;;;;;22.28;61.58;99563.97;5050287;28;20029;-48
2022/05/18 09:55:09;;;;;;;6.03;4.07;;;;;;;22.13;63.11;99570.31;5050436;28;20025;-48
2022/05/18 09:57:43;;;;;;;8.98;4.10;;;;;;;22.03;62.09;99566.59;5048772;28;20241;-45
2022/05/18 10:00:21;;;;;;;5.95;3.80;;;;;;;22.23;61.41;99571.00;5049654;28;20024;-47
2022/05/18 10:08:30;;;;;;;4.20;3.50;;;;;;;21.97;60.96;99559.59;5030375;28;20512;-49
2022/05/18 10:11:09;;;;;;;8.18;3.50;;;;;;;21.75;60.85;99542.97;5030300;28;20033;-49
2022/05/18 10:13:42;;;;;;;5.03;3.50;;;;;;;21.76;59.83;99550.84;5030178;28;20029;-46
2022/05/18 10:16:11;;;;;;;4.72;3.45;;;;;;;22.12;59.57;99547.81;5030077;28;20284;-46
2022/05/18 10:18:41;;;;;;;4.10;3.60;;;;;;;22.40;58.07;99551.63;5029392;28;20313;-48
2022/05/18 10:21:13;;;;;;;4.93;3.60;;;;;;;22.47;58.15;99548.59;5028815;28;20550;-46
2022/05/18 10:23:51;;;;;;;5.35;3.60;;;;;;;22.54;57.86;99548.25;5029917;28;20138;-46
2022/05/18 10:26:29;;;;;;;4.57;3.60;;;;;;;23.00;56.11;99545.81;5029347;28;20079;-47
2022/05/18 10:29:15;;;;;;;7.78;3.70;;;;;;;23.32;55.06;99549.78;5029442;28;20022;-48
2022/05/18 10:32:03;;;;;;;7.22;3.85;;;;;;;23.16;54.61;99545.66;5022465;28;20398;-47
2022/05/18 10:34:32;;;;;;;5.78;3.50;;;;;;;23.46;53.05;99552.56;5030034;28;20021;-46
2022/05/18 10:37:00;;;;;;;5.47;3.10;;;;;;;23.48;52.23;99552.28;5030311;28;20095;-48
2022/05/18 10:39:37;;;;;;;8.55;3.45;;;;;;;23.59;52.01;99565.41;5028440;28;20104;-47
2022/05/18 10:42:23;;;;;;;4.50;3.40;;;;;;;23.52;52.17;99559.53;5030093;28;20021;-47
2022/05/18 10:44:50;;;;;;;5.20;3.40;;;;;;;23.99;51.69;99567.84;5029490;28;20022;-49
2022/05/18 10:47:26;;;;;;;5.65;3.40;;;;;;;24.11;50.64;99567.34;5029077;28;20366;-49
2022/05/18 10:50:12;;;;;;;3.60;3.08;;;;;;;24.50;49.02;99558.78;5041939;28;20692;-48
2022/05/18 10:52:38;;;;;;;4.75;3.00;;;;;;;23.85;49.60;99551.47;5041866;28;20039;-49
2022/05/18 10:55:16;;;;;;;3.50;2.80;;;;;;;23.71;49.69;99561.44;5049964;28;20013;-50
2022/05/18 10:58:04;;;;;;;6.53;3.20;;;;;;;23.81;49.17;99562.09;5046224;28;20031;-48
2022/05/18 11:01:02;;;;;;;4.35;2.90;;;;;;;23.75;49.34;99559.75;5028906;28;20259;-51
2022/05/18 11:03:45;;;;;;;4.75;2.78;;;;;;;23.87;49.11;99545.72;5034325;28;20033;-49
2022/05/18 11:06:20;;;;;;;5.00;3.10;;;;;;;24.49;48.35;99554.44;5048821;28;20029;-50
2022/05/18 11:08:47;;;;;;;3.47;2.75;;;;;;;24.33;47.67;99561.25;5048380;28;20109;-48
2022/05/18 11:11:37;;;;;;;5.10;2.78;;;;;;;24.58;47.27;99558.09;5048394;28;20417;-48
2022/05/18 11:14:11;;;;;;;3.15;2.80;;;;;;;24.10;47.45;99555.66;5048636;28;20017;-50
2022/05/18 11:16:55;;;;;;;3.85;2.85;;;;;;;23.95;47.70;99559.47;5046868;28;20505;-48
2022/05/18 11:19:52;;;;;;;5.28;3.00;;;;;;;24.35;47.23;99559.03;5046970;28;20036;-50
2022/05/18 11:22:34;;;;;;;3.20;2.90;;;;;;;24.66;46.19;99547.63;5048294;28;20025;-48
2022/05/18 11:25:18;;;;;;;4.90;2.80;;;;;;;24.99;45.75;99556.47;5048767;28;20061;-49
2022/05/18 11:27:51;;;;;;;8.45;3.28;;;;;;;25.07;46.08;99550.31;5048543;28;20028;-49
2022/05/18 11:30:26;;;;;;;4.05;3.00;;;;;;;25.70;44.25;99554.13;5048479;28;20120;-47
2022/05/18 11:33:11;;;;;;;3.22;2.92;;;;;;;26.12;43.99;99554.78;5047311;28;20044;-49
2022/05/18 11:35:51;;;;;;;3.72;2.97;;;;;;;25.56;45.50;99556.88;5047640;28;20056;-49
2022/05/18 11:38:44;;;;;;;3.17;2.88;;;;;;;25.63;45.13;99556.47;5047767;28;20108;-49
2022/05/18 11:42:11;;;;;;;4.30;3.30;;;;;;;25.88;44.24;99552.34;5048289;28;20017;-49
2022/05/18 11:45:10;;;;;;;5.43;2.72;;;;;;;25.89;44.15;99555.84;5025212;28;20041;-49
2022/05/18 11:47:57;;;;;;;4.68;3.35;;;;;;;26.27;43.99;99564.47;5047620;28;20025;-49
2022/05/18 11:50:41;;;;;;;5.43;3.30;;;;;;;26.60;43.15;99569.66;5029385;28;20037;-49
2022/05/18 11:53:18;;;;;;;7.40;3.10;;;;;;;26.40;44.42;99575.59;5027619;28;20040;-50
2022/05/18 11:55:46;;;;;;;4.05;3.65;;;;;;;26.81;42.37;99580.78;5027935;28;20033;-51
2022/05/18 11:59:00;;;;;;;7.00;3.40;;;;;;;26.82;42.86;99587.84;5027732;28;20386;-49
2022/05/18 12:01:50;;;;;;;7.40;3.70;;;;;;;26.60;43.41;99596.09;4986163;28;20052;-49
2022/05/18 12:04:38;;;;;;;6.45;3.50;;;;;;;26.32;43.69;99596.25;5027956;28;20207;-51